sensor_id;sensor_type;location;lat;lon;timestamp;P1;durP1;ratioP1;P2;durP2;ratioP2
26113;SDS011;13966;48.828;9.064;2022-12-07T00:01:42;22.75;;;10.80;;
26113;SDS011;13966;48.828;9.064;2022-12-07T00:04:10;20.35;;;10.15;;
26113;SDS011;13966;48.828;9.064;2022-12-07T00:06:37;17.92;;;9.35;;
26113;SDS011;13966;48.828;9.064;2022-12-07T00:09:04;24.05;;;10.88;;
26113;SDS011;13966;48.828;9.064;2022-12-07T00:11:30;16.67;;;10.02;;
26113;SDS011;13966;48.828;9.064;2022-12-07T00:13:58;14.88;;;8.98;;
26113;SDS011;13966;48.828;9.064;2022-12-07T00:16:25;12.63;;;8.30;;
26113;SDS011;13966;48.828;9.064;2022-12-07T00:18:51;12.90;;;8.85;;
26113;SDS011;13966;48.828;9.064;2022-12-07T00:21:18;14.10;;;9.43;;
26113;SDS011;13966;48.828;9.064;2022-12-07T00:23:45;12.52;;;9.05;;
26113;SDS011;13966;48.828;9.064;2022-12-07T00:26:13;15.50;;;9.23;;
26113;SDS011;13966;48.828;9.064;2022-12-07T00:28:39;13.05;;;8.95;;
26113;SDS011;13966;48.828;9.064;2022-12-07T00:31:10;13.98;;;9.70;;
26113;SDS011;13966;48.828;9.064;2022-12-07T00:33:36;17.45;;;9.80;;
26113;SDS011;13966;48.828;9.064;2022-12-07T00:36:03;14.18;;;9.80;;
26113;SDS011;13966;48.828;9.064;2022-12-07T00:38:31;16.00;;;10.07;;
26113;SDS011;13966;48.828;9.064;2022-12-07T00:40:58;12.95;;;9.45;;
26113;SDS011;13966;48.828;9.064;2022-12-07T00:43:24;14.43;;;9.45;;
26113;SDS011;13966;48.828;9.064;2022-12-07T00:45:50;17.35;;;10.07;;
26113;SDS011;13966;48.828;9.064;2022-12-07T00:48:16;12.20;;;9.45;;
26113;SDS011;13966;48.828;9.064;2022-12-07T00:50:43;12.82;;;8.98;;
26113;SDS011;13966;48.828;9.064;2022-12-07T00:53:08;15.48;;;9.43;;
26113;SDS011;13966;48.828;9.064;2022-12-07T00:55:35;14.43;;;9.18;;
26113;SDS011;13966;48.828;9.064;2022-12-07T00:58:01;13.35;;;9.20;;
26113;SDS011;13966;48.828;9.064;2022-12-07T01:00:27;15.80;;;9.85;;
26113;SDS011;13966;48.828;9.064;2022-12-07T01:02:53;16.45;;;9.65;;
26113;SDS011;13966;48.828;9.064;2022-12-07T01:05:19;13.60;;;9.88;;
26113;SDS011;13966;48.828;9.064;2022-12-07T01:07:45;14.55;;;10.13;;
26113;SDS011;13966;48.828;9.064;2022-12-07T01:10:11;12.93;;;8.65;;
26113;SDS011;13966;48.828;9.064;2022-12-07T01:12:37;13.10;;;9.35;;
26113;SDS011;13966;48.828;9.064;2022-12-07T01:15:03;13.02;;;9.43;;
26113;SDS011;13966;48.828;9.064;2022-12-07T01:17:30;12.60;;;8.95;;
26113;SDS011;13966;48.828;9.064;2022-12-07T01:19:56;13.55;;;8.98;;
26113;SDS011;13966;48.828;9.064;2022-12-07T01:22:22;12.15;;;8.88;;
26113;SDS011;13966;48.828;9.064;2022-12-07T01:24:48;12.27;;;8.98;;
26113;SDS011;13966;48.828;9.064;2022-12-07T01:27:14;12.48;;;8.85;;
26113;SDS011;13966;48.828;9.064;2022-12-07T01:29:40;18.65;;;9.52;;
26113;SDS011;13966;48.828;9.064;2022-12-07T01:32:06;12.25;;;9.05;;
26113;SDS011;13966;48.828;9.064;2022-12-07T01:34:32;12.18;;;8.90;;
26113;SDS011;13966;48.828;9.064;2022-12-07T01:36:58;18.52;;;9.57;;
26113;SDS011;13966;48.828;9.064;2022-12-07T01:39:24;13.10;;;9.10;;
26113;SDS011;13966;48.828;9.064;2022-12-07T01:41:50;13.65;;;9.55;;
26113;SDS011;13966;48.828;9.064;2022-12-07T01:44:17;13.93;;;9.93;;
26113;SDS011;13966;48.828;9.064;2022-12-07T01:46:45;14.15;;;9.40;;
26113;SDS011;13966;48.828;9.064;2022-12-07T01:49:16;10.73;;;8.13;;
26113;SDS011;13966;48.828;9.064;2022-12-07T01:51:43;12.40;;;9.25;;
26113;SDS011;13966;48.828;9.064;2022-12-07T01:54:10;11.63;;;8.60;;
26113;SDS011;13966;48.828;9.064;2022-12-07T01:56:37;13.10;;;9.10;;
26113;SDS011;13966;48.828;9.064;2022-12-07T01:59:05;15.32;;;9.23;;
26113;SDS011;13966;48.828;9.064;2022-12-07T02:01:31;12.10;;;8.52;;
26113;SDS011;13966;48.828;9.064;2022-12-07T02:03:57;14.60;;;8.95;;
26113;SDS011;13966;48.828;9.064;2022-12-07T02:06:24;14.55;;;8.60;;
26113;SDS011;13966;48.828;9.064;2022-12-07T02:08:51;11.77;;;8.23;;
26113;SDS011;13966;48.828;9.064;2022-12-07T02:11:17;13.88;;;9.15;;
26113;SDS011;13966;48.828;9.064;2022-12-07T02:13:44;12.85;;;8.30;;
26113;SDS011;13966;48.828;9.064;2022-12-07T02:19:03;12.93;;;9.20;;
26113;SDS011;13966;48.828;9.064;2022-12-07T02:29:25;13.25;;;9.68;;
26113;SDS011;13966;48.828;9.064;2022-12-07T02:32:15;14.23;;;8.90;;
26113;SDS011;13966;48.828;9.064;2022-12-07T02:34:42;12.90;;;8.73;;
26113;SDS011;13966;48.828;9.064;2022-12-07T02:39:58;13.88;;;9.23;;
26113;SDS011;13966;48.828;9.064;2022-12-07T02:42:27;15.45;;;9.02;;
26113;SDS011;13966;48.828;9.064;2022-12-07T02:44:54;12.63;;;8.70;;
26113;SDS011;13966;48.828;9.064;2022-12-07T02:47:20;15.45;;;8.73;;
26113;SDS011;13966;48.828;9.064;2022-12-07T02:49:47;14.05;;;8.68;;
26113;SDS011;13966;48.828;9.064;2022-12-07T02:52:13;15.13;;;8.88;;
26113;SDS011;13966;48.828;9.064;2022-12-07T02:54:39;12.20;;;8.40;;
26113;SDS011;13966;48.828;9.064;2022-12-07T03:02:14;12.88;;;8.68;;
26113;SDS011;13966;48.828;9.064;2022-12-07T03:04:45;13.60;;;9.10;;
26113;SDS011;13966;48.828;9.064;2022-12-07T03:09:51;15.10;;;9.90;;
26113;SDS011;13966;48.828;9.064;2022-12-07T03:12:21;15.52;;;9.40;;
26113;SDS011;13966;48.828;9.064;2022-12-07T03:14:49;12.90;;;9.63;;
26113;SDS011;13966;48.828;9.064;2022-12-07T03:17:24;18.13;;;10.65;;
26113;SDS011;13966;48.828;9.064;2022-12-07T03:19:51;13.43;;;9.23;;
26113;SDS011;13966;48.828;9.064;2022-12-07T03:22:18;14.35;;;8.95;;
26113;SDS011;13966;48.828;9.064;2022-12-07T03:24:46;16.63;;;9.93;;
26113;SDS011;13966;48.828;9.064;2022-12-07T03:27:18;15.15;;;10.63;;
26113;SDS011;13966;48.828;9.064;2022-12-07T03:29:47;14.90;;;10.07;;
26113;SDS011;13966;48.828;9.064;2022-12-07T03:32:16;15.90;;;11.18;;
26113;SDS011;13966;48.828;9.064;2022-12-07T03:34:54;16.42;;;10.65;;
26113;SDS011;13966;48.828;9.064;2022-12-07T03:37:27;15.55;;;10.80;;
26113;SDS011;13966;48.828;9.064;2022-12-07T03:40:02;13.88;;;9.90;;
26113;SDS011;13966;48.828;9.064;2022-12-07T03:42:29;14.68;;;10.23;;
26113;SDS011;13966;48.828;9.064;2022-12-07T03:44:56;16.88;;;10.65;;
26113;SDS011;13966;48.828;9.064;2022-12-07T03:47:36;15.57;;;10.80;;
26113;SDS011;13966;48.828;9.064;2022-12-07T03:52:58;13.55;;;10.02;;
26113;SDS011;13966;48.828;9.064;2022-12-07T03:55:32;15.27;;;10.48;;
26113;SDS011;13966;48.828;9.064;2022-12-07T03:58:04;15.52;;;10.45;;
26113;SDS011;13966;48.828;9.064;2022-12-07T04:00:31;14.77;;;10.40;;
26113;SDS011;13966;48.828;9.064;2022-12-07T04:02:57;16.90;;;11.15;;
26113;SDS011;13966;48.828;9.064;2022-12-07T04:05:23;17.35;;;11.43;;
26113;SDS011;13966;48.828;9.064;2022-12-07T04:07:49;16.65;;;11.23;;
26113;SDS011;13966;48.828;9.064;2022-12-07T04:10:15;16.95;;;10.80;;
26113;SDS011;13966;48.828;9.064;2022-12-07T04:12:41;18.20;;;11.20;;
26113;SDS011;13966;48.828;9.064;2022-12-07T04:15:08;19.50;;;11.60;;
26113;SDS011;13966;48.828;9.064;2022-12-07T04:17:34;16.27;;;11.00;;
26113;SDS011;13966;48.828;9.064;2022-12-07T04:20:00;18.20;;;11.50;;
26113;SDS011;13966;48.828;9.064;2022-12-07T04:22:26;14.52;;;10.23;;
26113;SDS011;13966;48.828;9.064;2022-12-07T04:24:52;17.85;;;10.25;;
26113;SDS011;13966;48.828;9.064;2022-12-07T04:27:18;16.67;;;10.15;;
26113;SDS011;13966;48.828;9.064;2022-12-07T04:29:44;16.88;;;9.25;;
26113;SDS011;13966;48.828;9.064;2022-12-07T04:32:10;17.70;;;10.52;;
26113;SDS011;13966;48.828;9.064;2022-12-07T04:34:36;10.95;;;7.80;;
26113;SDS011;13966;48.828;9.064;2022-12-07T04:37:02;11.68;;;8.00;;
26113;SDS011;13966;48.828;9.064;2022-12-07T04:39:32;13.68;;;7.95;;
26113;SDS011;13966;48.828;9.064;2022-12-07T04:41:58;10.57;;;7.47;;
26113;SDS011;13966;48.828;9.064;2022-12-07T04:44:25;12.80;;;7.95;;
26113;SDS011;13966;48.828;9.064;2022-12-07T04:46:51;13.38;;;7.90;;
26113;SDS011;13966;48.828;9.064;2022-12-07T04:49:18;13.52;;;8.15;;
26113;SDS011;13966;48.828;9.064;2022-12-07T04:51:45;12.20;;;7.60;;
26113;SDS011;13966;48.828;9.064;2022-12-07T04:54:11;12.23;;;8.40;;
26113;SDS011;13966;48.828;9.064;2022-12-07T04:56:38;10.02;;;7.15;;
26113;SDS011;13966;48.828;9.064;2022-12-07T04:59:04;11.38;;;7.72;;
26113;SDS011;13966;48.828;9.064;2022-12-07T05:01:30;15.35;;;8.45;;
26113;SDS011;13966;48.828;9.064;2022-12-07T05:03:56;13.30;;;7.65;;
26113;SDS011;13966;48.828;9.064;2022-12-07T05:06:22;12.80;;;8.98;;
26113;SDS011;13966;48.828;9.064;2022-12-07T05:08:48;13.55;;;8.85;;
26113;SDS011;13966;48.828;9.064;2022-12-07T05:11:14;13.07;;;8.60;;
26113;SDS011;13966;48.828;9.064;2022-12-07T05:14:11;14.93;;;8.55;;
26113;SDS011;13966;48.828;9.064;2022-12-07T05:16:38;11.65;;;8.52;;
26113;SDS011;13966;48.828;9.064;2022-12-07T05:19:04;14.80;;;9.40;;
26113;SDS011;13966;48.828;9.064;2022-12-07T05:21:30;13.68;;;8.57;;
26113;SDS011;13966;48.828;9.064;2022-12-07T05:23:56;12.13;;;8.35;;
26113;SDS011;13966;48.828;9.064;2022-12-07T05:26:22;12.15;;;7.95;;
26113;SDS011;13966;48.828;9.064;2022-12-07T05:28:52;10.75;;;7.35;;
26113;SDS011;13966;48.828;9.064;2022-12-07T05:31:18;10.73;;;7.40;;
26113;SDS011;13966;48.828;9.064;2022-12-07T05:33:44;9.75;;;6.32;;
26113;SDS011;13966;48.828;9.064;2022-12-07T05:36:10;12.57;;;7.18;;
26113;SDS011;13966;48.828;9.064;2022-12-07T05:38:36;9.88;;;7.47;;
26113;SDS011;13966;48.828;9.064;2022-12-07T05:41:03;9.85;;;7.43;;
26113;SDS011;13966;48.828;9.064;2022-12-07T05:43:29;15.52;;;8.77;;
26113;SDS011;13966;48.828;9.064;2022-12-07T05:45:55;12.15;;;8.10;;
26113;SDS011;13966;48.828;9.064;2022-12-07T05:48:21;15.07;;;8.10;;
26113;SDS011;13966;48.828;9.064;2022-12-07T05:50:48;14.20;;;7.57;;
26113;SDS011;13966;48.828;9.064;2022-12-07T05:53:14;14.63;;;8.35;;
26113;SDS011;13966;48.828;9.064;2022-12-07T05:55:40;14.02;;;8.52;;
26113;SDS011;13966;48.828;9.064;2022-12-07T05:58:06;15.00;;;8.25;;
26113;SDS011;13966;48.828;9.064;2022-12-07T06:00:50;12.88;;;8.82;;
26113;SDS011;13966;48.828;9.064;2022-12-07T06:03:16;10.23;;;6.72;;
26113;SDS011;13966;48.828;9.064;2022-12-07T06:05:42;12.77;;;7.60;;
26113;SDS011;13966;48.828;9.064;2022-12-07T06:08:08;18.58;;;8.60;;
26113;SDS011;13966;48.828;9.064;2022-12-07T06:10:34;11.65;;;7.45;;
26113;SDS011;13966;48.828;9.064;2022-12-07T06:13:00;11.68;;;7.45;;
26113;SDS011;13966;48.828;9.064;2022-12-07T06:15:26;14.15;;;8.35;;
26113;SDS011;13966;48.828;9.064;2022-12-07T06:17:52;13.65;;;8.43;;
26113;SDS011;13966;48.828;9.064;2022-12-07T06:20:18;11.13;;;7.68;;
26113;SDS011;13966;48.828;9.064;2022-12-07T06:22:44;13.65;;;7.90;;
26113;SDS011;13966;48.828;9.064;2022-12-07T06:25:10;16.33;;;8.27;;
26113;SDS011;13966;48.828;9.064;2022-12-07T06:27:36;11.60;;;7.32;;
26113;SDS011;13966;48.828;9.064;2022-12-07T06:30:03;11.52;;;7.60;;
26113;SDS011;13966;48.828;9.064;2022-12-07T06:32:32;11.75;;;7.35;;
26113;SDS011;13966;48.828;9.064;2022-12-07T06:34:58;11.50;;;6.95;;
26113;SDS011;13966;48.828;9.064;2022-12-07T06:37:24;12.13;;;6.40;;
26113;SDS011;13966;48.828;9.064;2022-12-07T06:39:50;15.48;;;7.25;;
26113;SDS011;13966;48.828;9.064;2022-12-07T06:42:16;9.43;;;6.85;;
26113;SDS011;13966;48.828;9.064;2022-12-07T06:44:42;11.27;;;6.90;;
26113;SDS011;13966;48.828;9.064;2022-12-07T06:47:08;11.80;;;6.00;;
26113;SDS011;13966;48.828;9.064;2022-12-07T06:49:34;10.50;;;6.75;;
26113;SDS011;13966;48.828;9.064;2022-12-07T06:52:00;10.57;;;7.18;;
26113;SDS011;13966;48.828;9.064;2022-12-07T06:54:26;11.75;;;6.57;;
26113;SDS011;13966;48.828;9.064;2022-12-07T06:56:55;10.52;;;6.20;;
26113;SDS011;13966;48.828;9.064;2022-12-07T06:59:21;9.73;;;6.50;;
26113;SDS011;13966;48.828;9.064;2022-12-07T07:01:47;10.48;;;6.47;;
26113;SDS011;13966;48.828;9.064;2022-12-07T07:04:13;11.75;;;6.95;;
26113;SDS011;13966;48.828;9.064;2022-12-07T07:06:39;11.90;;;6.65;;
26113;SDS011;13966;48.828;9.064;2022-12-07T07:09:06;14.88;;;7.07;;
26113;SDS011;13966;48.828;9.064;2022-12-07T07:11:32;12.65;;;7.03;;
26113;SDS011;13966;48.828;9.064;2022-12-07T07:13:58;9.80;;;7.00;;
26113;SDS011;13966;48.828;9.064;2022-12-07T07:16:27;9.20;;;6.65;;
26113;SDS011;13966;48.828;9.064;2022-12-07T07:18:53;10.85;;;6.20;;
26113;SDS011;13966;48.828;9.064;2022-12-07T07:21:19;8.13;;;5.90;;
26113;SDS011;13966;48.828;9.064;2022-12-07T07:23:45;8.88;;;6.50;;
26113;SDS011;13966;48.828;9.064;2022-12-07T07:26:11;9.05;;;6.15;;
26113;SDS011;13966;48.828;9.064;2022-12-07T07:28:37;9.68;;;5.72;;
26113;SDS011;13966;48.828;9.064;2022-12-07T07:31:03;13.98;;;6.55;;
26113;SDS011;13966;48.828;9.064;2022-12-07T07:33:29;8.55;;;5.90;;
26113;SDS011;13966;48.828;9.064;2022-12-07T07:35:55;9.90;;;6.47;;
26113;SDS011;13966;48.828;9.064;2022-12-07T07:38:21;9.52;;;6.05;;
26113;SDS011;13966;48.828;9.064;2022-12-07T07:40:47;11.75;;;6.95;;
26113;SDS011;13966;48.828;9.064;2022-12-07T07:43:13;17.88;;;6.78;;
26113;SDS011;13966;48.828;9.064;2022-12-07T07:45:39;11.15;;;7.25;;
26113;SDS011;13966;48.828;9.064;2022-12-07T07:48:19;13.48;;;7.13;;
26113;SDS011;13966;48.828;9.064;2022-12-07T07:50:47;12.65;;;6.03;;
26113;SDS011;13966;48.828;9.064;2022-12-07T07:53:13;9.02;;;5.80;;
26113;SDS011;13966;48.828;9.064;2022-12-07T07:55:39;11.73;;;6.07;;
26113;SDS011;13966;48.828;9.064;2022-12-07T07:58:05;9.80;;;6.53;;
26113;SDS011;13966;48.828;9.064;2022-12-07T08:00:31;10.18;;;6.85;;
26113;SDS011;13966;48.828;9.064;2022-12-07T08:02:57;11.45;;;7.00;;
26113;SDS011;13966;48.828;9.064;2022-12-07T08:05:24;11.57;;;7.53;;
26113;SDS011;13966;48.828;9.064;2022-12-07T08:07:50;13.38;;;6.97;;
26113;SDS011;13966;48.828;9.064;2022-12-07T08:10:16;13.02;;;7.40;;
26113;SDS011;13966;48.828;9.064;2022-12-07T08:12:42;9.63;;;5.95;;
26113;SDS011;13966;48.828;9.064;2022-12-07T08:15:35;8.73;;;5.82;;
26113;SDS011;13966;48.828;9.064;2022-12-07T08:18:02;10.27;;;7.07;;
26113;SDS011;13966;48.828;9.064;2022-12-07T08:20:29;11.07;;;6.97;;
26113;SDS011;13966;48.828;9.064;2022-12-07T08:22:55;10.27;;;5.82;;
26113;SDS011;13966;48.828;9.064;2022-12-07T08:25:21;8.30;;;5.80;;
26113;SDS011;13966;48.828;9.064;2022-12-07T08:27:48;8.95;;;6.20;;
26113;SDS011;13966;48.828;9.064;2022-12-07T08:30:14;12.57;;;6.32;;
26113;SDS011;13966;48.828;9.064;2022-12-07T08:32:40;14.32;;;6.38;;
26113;SDS011;13966;48.828;9.064;2022-12-07T08:35:06;9.98;;;6.40;;
26113;SDS011;13966;48.828;9.064;2022-12-07T08:37:32;11.48;;;6.45;;
26113;SDS011;13966;48.828;9.064;2022-12-07T08:39:58;14.43;;;7.55;;
26113;SDS011;13966;48.828;9.064;2022-12-07T08:42:24;11.07;;;7.57;;
26113;SDS011;13966;48.828;9.064;2022-12-07T08:44:54;13.05;;;6.85;;
26113;SDS011;13966;48.828;9.064;2022-12-07T08:47:20;11.35;;;7.38;;
26113;SDS011;13966;48.828;9.064;2022-12-07T08:49:47;25.27;;;8.50;;
26113;SDS011;13966;48.828;9.064;2022-12-07T08:52:14;17.50;;;7.38;;
26113;SDS011;13966;48.828;9.064;2022-12-07T08:54:41;13.27;;;6.60;;
26113;SDS011;13966;48.828;9.064;2022-12-07T08:57:07;10.20;;;6.20;;
26113;SDS011;13966;48.828;9.064;2022-12-07T08:59:34;25.25;;;7.90;;
26113;SDS011;13966;48.828;9.064;2022-12-07T09:02:00;13.88;;;7.13;;
26113;SDS011;13966;48.828;9.064;2022-12-07T09:04:26;14.45;;;7.32;;
26113;SDS011;13966;48.828;9.064;2022-12-07T09:06:53;12.68;;;7.15;;
26113;SDS011;13966;48.828;9.064;2022-12-07T09:09:19;9.48;;;5.53;;
26113;SDS011;13966;48.828;9.064;2022-12-07T09:11:45;8.80;;;6.25;;
26113;SDS011;13966;48.828;9.064;2022-12-07T09:14:12;12.25;;;5.57;;
26113;SDS011;13966;48.828;9.064;2022-12-07T09:16:38;8.13;;;4.57;;
26113;SDS011;13966;48.828;9.064;2022-12-07T09:19:04;13.20;;;4.90;;
26113;SDS011;13966;48.828;9.064;2022-12-07T09:21:30;7.78;;;4.72;;
26113;SDS011;13966;48.828;9.064;2022-12-07T09:23:56;7.97;;;4.60;;
26113;SDS011;13966;48.828;9.064;2022-12-07T09:26:22;10.60;;;5.00;;
26113;SDS011;13966;48.828;9.064;2022-12-07T09:28:48;6.53;;;4.30;;
26113;SDS011;13966;48.828;9.064;2022-12-07T09:31:14;7.70;;;5.00;;
26113;SDS011;13966;48.828;9.064;2022-12-07T09:33:40;11.23;;;4.82;;
26113;SDS011;13966;48.828;9.064;2022-12-07T09:36:06;13.00;;;5.20;;
26113;SDS011;13966;48.828;9.064;2022-12-07T09:38:33;13.45;;;6.47;;
26113;SDS011;13966;48.828;9.064;2022-12-07T09:41:03;16.02;;;6.85;;
26113;SDS011;13966;48.828;9.064;2022-12-07T09:43:30;22.15;;;7.32;;
26113;SDS011;13966;48.828;9.064;2022-12-07T09:45:56;11.05;;;6.60;;
26113;SDS011;13966;48.828;9.064;2022-12-07T09:48:23;40.63;;;11.80;;
26113;SDS011;13966;48.828;9.064;2022-12-07T09:50:51;19.23;;;8.30;;
26113;SDS011;13966;48.828;9.064;2022-12-07T09:53:30;14.75;;;7.45;;
26113;SDS011;13966;48.828;9.064;2022-12-07T09:55:58;21.15;;;8.30;;
26113;SDS011;13966;48.828;9.064;2022-12-07T09:58:25;13.35;;;6.95;;
26113;SDS011;13966;48.828;9.064;2022-12-07T10:00:53;25.73;;;9.57;;
26113;SDS011;13966;48.828;9.064;2022-12-07T10:03:21;11.25;;;6.40;;
26113;SDS011;13966;48.828;9.064;2022-12-07T10:05:48;12.88;;;6.95;;
26113;SDS011;13966;48.828;9.064;2022-12-07T10:08:15;9.68;;;5.72;;
26113;SDS011;13966;48.828;9.064;2022-12-07T10:10:42;15.35;;;7.63;;
26113;SDS011;13966;48.828;9.064;2022-12-07T10:13:09;14.18;;;6.53;;
26113;SDS011;13966;48.828;9.064;2022-12-07T10:15:46;11.57;;;5.88;;
26113;SDS011;13966;48.828;9.064;2022-12-07T10:23:19;5.13;;;3.88;;
26113;SDS011;13966;48.828;9.064;2022-12-07T10:25:45;7.00;;;4.40;;
26113;SDS011;13966;48.828;9.064;2022-12-07T10:28:14;7.10;;;3.67;;
26113;SDS011;13966;48.828;9.064;2022-12-07T10:33:32;5.65;;;3.90;;
26113;SDS011;13966;48.828;9.064;2022-12-07T10:35:59;6.82;;;3.75;;
26113;SDS011;13966;48.828;9.064;2022-12-07T10:38:26;8.52;;;3.00;;
26113;SDS011;13966;48.828;9.064;2022-12-07T10:41:07;7.53;;;2.78;;
26113;SDS011;13966;48.828;9.064;2022-12-07T10:43:34;7.40;;;3.20;;
26113;SDS011;13966;48.828;9.064;2022-12-07T11:01:03;4.40;;;3.05;;
26113;SDS011;13966;48.828;9.064;2022-12-07T11:06:30;3.63;;;2.40;;
26113;SDS011;13966;48.828;9.064;2022-12-07T11:09:16;3.70;;;2.53;;
26113;SDS011;13966;48.828;9.064;2022-12-07T11:17:05;3.78;;;3.03;;
26113;SDS011;13966;48.828;9.064;2022-12-07T11:19:46;4.38;;;3.10;;
26113;SDS011;13966;48.828;9.064;2022-12-07T11:22:28;5.93;;;4.00;;
26113;SDS011;13966;48.828;9.064;2022-12-07T11:25:13;7.05;;;4.22;;
26113;SDS011;13966;48.828;9.064;2022-12-07T11:27:47;5.75;;;4.15;;
26113;SDS011;13966;48.828;9.064;2022-12-07T11:30:16;7.22;;;4.65;;
26113;SDS011;13966;48.828;9.064;2022-12-07T11:37:47;8.07;;;5.53;;
26113;SDS011;13966;48.828;9.064;2022-12-07T11:42:46;10.02;;;5.80;;
26113;SDS011;13966;48.828;9.064;2022-12-07T11:47:47;8.25;;;5.72;;
26113;SDS011;13966;48.828;9.064;2022-12-07T11:50:20;8.75;;;5.20;;
26113;SDS011;13966;48.828;9.064;2022-12-07T11:52:57;8.52;;;5.90;;
26113;SDS011;13966;48.828;9.064;2022-12-07T11:55:26;9.93;;;5.85;;
26113;SDS011;13966;48.828;9.064;2022-12-07T12:00:21;9.32;;;5.63;;
26113;SDS011;13966;48.828;9.064;2022-12-07T12:02:49;12.07;;;5.63;;
26113;SDS011;13966;48.828;9.064;2022-12-07T12:05:18;8.95;;;5.90;;
26113;SDS011;13966;48.828;9.064;2022-12-07T12:07:46;7.95;;;5.72;;
26113;SDS011;13966;48.828;9.064;2022-12-07T12:10:19;9.13;;;4.90;;
26113;SDS011;13966;48.828;9.064;2022-12-07T12:15:37;6.45;;;5.18;;
26113;SDS011;13966;48.828;9.064;2022-12-07T12:18:12;7.60;;;5.30;;
26113;SDS011;13966;48.828;9.064;2022-12-07T12:20:45;9.35;;;5.15;;
26113;SDS011;13966;48.828;9.064;2022-12-07T12:25:42;7.10;;;5.18;;
26113;SDS011;13966;48.828;9.064;2022-12-07T12:31:05;7.18;;;5.10;;
26113;SDS011;13966;48.828;9.064;2022-12-07T12:33:32;12.13;;;5.40;;
26113;SDS011;13966;48.828;9.064;2022-12-07T12:47:00;9.18;;;5.93;;
26113;SDS011;13966;48.828;9.064;2022-12-07T12:49:39;11.75;;;6.88;;
26113;SDS011;13966;48.828;9.064;2022-12-07T12:54:35;16.63;;;8.70;;
26113;SDS011;13966;48.828;9.064;2022-12-07T13:02:21;17.63;;;7.43;;
26113;SDS011;13966;48.828;9.064;2022-12-07T13:07:48;12.85;;;6.85;;
26113;SDS011;13966;48.828;9.064;2022-12-07T13:10:00;12.43;;;6.88;;
26113;SDS011;13966;48.828;9.064;2022-12-07T13:12:27;15.27;;;8.70;;
26113;SDS011;13966;48.828;9.064;2022-12-07T13:14:56;11.02;;;7.03;;
26113;SDS011;13966;48.828;9.064;2022-12-07T13:20:02;23.35;;;11.88;;
26113;SDS011;13966;48.828;9.064;2022-12-07T13:22:35;15.65;;;9.43;;
26113;SDS011;13966;48.828;9.064;2022-12-07T13:25:07;15.32;;;8.85;;
26113;SDS011;13966;48.828;9.064;2022-12-07T13:27:34;10.88;;;7.13;;
26113;SDS011;13966;48.828;9.064;2022-12-07T13:30:03;16.98;;;7.30;;
26113;SDS011;13966;48.828;9.064;2022-12-07T13:34:59;13.45;;;8.10;;
26113;SDS011;13966;48.828;9.064;2022-12-07T13:37:27;15.85;;;9.82;;
26113;SDS011;13966;48.828;9.064;2022-12-07T13:39:54;12.60;;;8.15;;
26113;SDS011;13966;48.828;9.064;2022-12-07T13:44:51;10.52;;;7.55;;
26113;SDS011;13966;48.828;9.064;2022-12-07T13:49:48;12.88;;;6.85;;
26113;SDS011;13966;48.828;9.064;2022-12-07T13:55:26;10.60;;;7.60;;
26113;SDS011;13966;48.828;9.064;2022-12-07T13:57:33;10.32;;;7.10;;
26113;SDS011;13966;48.828;9.064;2022-12-07T14:00:01;11.07;;;7.32;;
26113;SDS011;13966;48.828;9.064;2022-12-07T14:02:28;11.15;;;6.82;;
26113;SDS011;13966;48.828;9.064;2022-12-07T14:05:07;10.50;;;7.07;;
26113;SDS011;13966;48.828;9.064;2022-12-07T14:07:34;10.30;;;7.13;;
26113;SDS011;13966;48.828;9.064;2022-12-07T14:10:04;9.18;;;6.50;;
26113;SDS011;13966;48.828;9.064;2022-12-07T14:12:31;9.27;;;6.68;;
26113;SDS011;13966;48.828;9.064;2022-12-07T14:14:58;14.73;;;8.07;;
26113;SDS011;13966;48.828;9.064;2022-12-07T14:17:26;17.35;;;8.27;;
26113;SDS011;13966;48.828;9.064;2022-12-07T14:24:45;12.63;;;7.47;;
26113;SDS011;13966;48.828;9.064;2022-12-07T14:27:22;11.43;;;5.72;;
26113;SDS011;13966;48.828;9.064;2022-12-07T14:29:50;9.32;;;5.35;;
26113;SDS011;13966;48.828;9.064;2022-12-07T14:32:18;9.15;;;6.13;;
26113;SDS011;13966;48.828;9.064;2022-12-07T14:37:41;9.45;;;6.60;;
26113;SDS011;13966;48.828;9.064;2022-12-07T14:40:12;12.27;;;6.25;;
26113;SDS011;13966;48.828;9.064;2022-12-07T14:42:38;10.50;;;7.05;;
26113;SDS011;13966;48.828;9.064;2022-12-07T14:45:05;12.02;;;7.30;;
26113;SDS011;13966;48.828;9.064;2022-12-07T14:47:31;12.50;;;7.32;;
26113;SDS011;13966;48.828;9.064;2022-12-07T14:49:57;13.85;;;7.03;;
26113;SDS011;13966;48.828;9.064;2022-12-07T14:52:26;11.20;;;6.50;;
26113;SDS011;13966;48.828;9.064;2022-12-07T14:54:53;10.75;;;5.95;;
26113;SDS011;13966;48.828;9.064;2022-12-07T14:57:19;7.68;;;5.65;;
26113;SDS011;13966;48.828;9.064;2022-12-07T14:59:45;10.50;;;5.80;;
26113;SDS011;13966;48.828;9.064;2022-12-07T15:02:12;9.73;;;6.25;;
26113;SDS011;13966;48.828;9.064;2022-12-07T15:04:38;10.48;;;6.32;;
26113;SDS011;13966;48.828;9.064;2022-12-07T15:07:05;12.70;;;7.75;;
26113;SDS011;13966;48.828;9.064;2022-12-07T15:09:31;13.48;;;8.70;;
26113;SDS011;13966;48.828;9.064;2022-12-07T15:11:57;14.20;;;7.63;;
26113;SDS011;13966;48.828;9.064;2022-12-07T15:14:23;8.82;;;6.72;;
26113;SDS011;13966;48.828;9.064;2022-12-07T15:16:49;8.70;;;6.25;;
26113;SDS011;13966;48.828;9.064;2022-12-07T15:19:19;11.95;;;7.72;;
26113;SDS011;13966;48.828;9.064;2022-12-07T15:21:50;13.23;;;8.00;;
26113;SDS011;13966;48.828;9.064;2022-12-07T15:24:16;16.17;;;9.00;;
26113;SDS011;13966;48.828;9.064;2022-12-07T15:26:42;15.60;;;9.38;;
26113;SDS011;13966;48.828;9.064;2022-12-07T15:29:09;14.93;;;9.73;;
26113;SDS011;13966;48.828;9.064;2022-12-07T15:31:35;19.38;;;10.52;;
26113;SDS011;13966;48.828;9.064;2022-12-07T15:34:02;18.20;;;10.48;;
26113;SDS011;13966;48.828;9.064;2022-12-07T15:36:28;16.17;;;10.50;;
26113;SDS011;13966;48.828;9.064;2022-12-07T15:38:55;17.88;;;11.35;;
26113;SDS011;13966;48.828;9.064;2022-12-07T15:41:21;20.35;;;11.48;;
26113;SDS011;13966;48.828;9.064;2022-12-07T15:43:47;18.50;;;10.60;;
26113;SDS011;13966;48.828;9.064;2022-12-07T15:46:32;16.83;;;10.52;;
26113;SDS011;13966;48.828;9.064;2022-12-07T15:48:59;22.05;;;11.20;;
26113;SDS011;13966;48.828;9.064;2022-12-07T15:51:25;19.80;;;12.07;;
26113;SDS011;13966;48.828;9.064;2022-12-07T15:53:52;20.65;;;13.07;;
26113;SDS011;13966;48.828;9.064;2022-12-07T15:56:18;25.23;;;14.23;;
26113;SDS011;13966;48.828;9.064;2022-12-07T15:58:44;24.40;;;13.40;;
26113;SDS011;13966;48.828;9.064;2022-12-07T16:01:14;22.50;;;12.23;;
26113;SDS011;13966;48.828;9.064;2022-12-07T16:03:40;24.13;;;11.70;;
26113;SDS011;13966;48.828;9.064;2022-12-07T16:06:06;19.67;;;11.02;;
26113;SDS011;13966;48.828;9.064;2022-12-07T16:08:32;22.85;;;11.65;;
26113;SDS011;13966;48.828;9.064;2022-12-07T16:10:58;22.92;;;13.20;;
26113;SDS011;13966;48.828;9.064;2022-12-07T16:13:24;19.05;;;12.20;;
26113;SDS011;13966;48.828;9.064;2022-12-07T16:15:50;18.60;;;10.88;;
26113;SDS011;13966;48.828;9.064;2022-12-07T16:18:16;19.58;;;11.55;;
26113;SDS011;13966;48.828;9.064;2022-12-07T16:20:42;19.27;;;11.35;;
26113;SDS011;13966;48.828;9.064;2022-12-07T16:23:08;20.38;;;11.65;;
26113;SDS011;13966;48.828;9.064;2022-12-07T16:25:34;19.75;;;12.05;;
26113;SDS011;13966;48.828;9.064;2022-12-07T16:28:00;20.63;;;12.18;;
26113;SDS011;13966;48.828;9.064;2022-12-07T16:30:26;23.58;;;13.85;;
26113;SDS011;13966;48.828;9.064;2022-12-07T16:32:51;22.13;;;12.77;;
26113;SDS011;13966;48.828;9.064;2022-12-07T16:35:17;25.38;;;14.57;;
26113;SDS011;13966;48.828;9.064;2022-12-07T16:37:43;26.20;;;15.88;;